Time;durP1;ratioP1;P1;durP2;ratioP2;P2;SDS_P1;SDS_P2;PMS_P1;PMS_P2;Temp;Humidity;BMP_temperature;BMP_pressure;BME280_temperature;BME280_humidity;BME280_pressure;Samples;Min_cycle;Max_cycle;Signal;HPM_P1;HPM_P2
2021/07/15 00:01:34;;;;;;;2.30;2.10;;;21.40;99.90;;;;;;4956707;29;20731;-64
2021/07/15 00:04:00;;;;;;;2.57;2.37;;;21.40;99.90;;;;;;4956490;29;20511;-64
2021/07/15 00:06:25;;;;;;;2.87;2.10;;;21.40;99.90;;;;;;4956447;29;20624;-64
2021/07/15 00:08:55;;;;;;;2.20;2.10;;;21.40;99.90;;;;;;4956300;29;20192;-64
2021/07/15 00:11:26;;;;;;;5.00;2.50;;;21.60;99.90;;;;;;4956456;29;20185;-64
2021/07/15 00:13:52;;;;;;;2.83;2.23;;;21.60;99.90;;;;;;4956487;29;20436;-65
2021/07/15 00:16:17;;;;;;;2.50;2.23;;;21.60;99.90;;;;;;4956354;29;20531;-65
2021/07/15 00:18:47;;;;;;;2.40;2.20;;;21.70;99.90;;;;;;4956065;29;20428;-64
2021/07/15 00:21:14;;;;;;;2.70;2.50;;;21.60;99.90;;;;;;4956670;29;20234;-68
2021/07/15 00:23:40;;;;;;;3.50;2.10;;;21.70;99.90;;;;;;4956319;29;20439;-65
2021/07/15 00:26:07;;;;;;;3.13;2.50;;;21.60;99.90;;;;;;4956537;29;20736;-65
2021/07/15 00:28:38;;;;;;;3.90;2.30;;;21.60;99.90;;;;;;4956269;29;20983;-68
2021/07/15 00:31:04;;;;;;;5.93;2.50;;;21.70;99.90;;;;;;4956374;29;20446;-65
2021/07/15 00:33:30;;;;;;;6.13;2.40;;;21.90;99.90;;;;;;4956196;29;20462;-64
2021/07/15 00:35:59;;;;;;;2.83;1.90;;;21.90;99.90;;;;;;4955668;28;20940;-64
2021/07/15 00:38:26;;;;;;;2.43;2.10;;;21.80;99.90;;;;;;4955906;29;20188;-64
2021/07/15 00:40:53;;;;;;;1.93;1.83;;;21.80;99.90;;;;;;4939228;29;20897;-64
2021/07/15 00:43:19;;;;;;;2.17;1.97;;;21.60;99.90;;;;;;4938990;29;20511;-65
2021/07/15 00:45:45;;;;;;;4.20;2.20;;;21.60;99.90;;;;;;4955944;29;20836;-68
2021/07/15 00:48:11;;;;;;;2.23;2.03;;;21.80;99.90;;;;;;4955940;29;20427;-68
2021/07/15 00:50:37;;;;;;;2.57;2.37;;;21.80;99.90;;;;;;4956050;29;20180;-68
2021/07/15 00:53:04;;;;;;;2.40;2.20;;;21.70;99.90;;;;;;4955980;29;20884;-68
2021/07/15 00:55:39;;;;;;;3.00;2.13;;;21.70;99.90;;;;;;4955844;29;20904;-68
2021/07/15 00:58:07;;;;;;;4.07;2.37;;;21.70;99.90;;;;;;4938951;29;20432;-67
2021/07/15 01:00:35;;;;;;;2.70;2.30;;;21.80;99.90;;;;;;4955764;29;20467;-69
2021/07/15 01:03:00;;;;;;;3.40;2.30;;;21.60;99.90;;;;;;4955765;29;20772;-68
2021/07/15 01:05:32;;;;;;;2.60;2.40;;;21.40;99.90;;;;;;4957744;29;20544;-68
2021/07/15 01:07:59;;;;;;;2.77;2.57;;;21.30;99.90;;;;;;4939054;29;20188;-68
2021/07/15 01:10:28;;;;;;;2.37;2.17;;;21.20;99.90;;;;;;4955687;29;20431;-68
2021/07/15 01:13:03;;;;;;;5.37;2.70;;;21.20;99.90;;;;;;4938728;29;20436;-68
2021/07/15 01:16:00;;;;;;;2.30;2.10;;;21.10;99.90;;;;;;4955525;29;20419;-68
2021/07/15 01:18:41;;;;;;;2.30;2.10;;;21.00;99.90;;;;;;4955278;29;20435;-68
2021/07/15 01:21:58;;;;;;;2.40;2.03;;;21.00;99.90;;;;;;4938585;29;20834;-68
2021/07/15 01:24:58;;;;;;;4.07;2.60;;;21.10;99.90;;;;;;4913371;29;20471;-67
2021/07/15 01:27:36;;;;;;;3.50;2.50;;;21.30;99.90;;;;;;4955594;29;20439;-64
2021/07/15 01:30:18;;;;;;;2.97;2.43;;;21.20;99.90;;;;;;4938692;29;20439;-64
2021/07/15 01:33:02;;;;;;;2.13;1.87;;;21.10;99.90;;;;;;4955577;29;20428;-65
2021/07/15 01:36:00;;;;;;;2.07;1.97;;;21.10;99.90;;;;;;4955398;29;20456;-64
2021/07/15 01:38:33;;;;;;;2.43;2.17;;;21.20;99.90;;;;;;4955182;29;20431;-64
2021/07/15 01:41:09;;;;;;;2.50;1.83;;;21.20;99.90;;;;;;4955439;29;20760;-64
2021/07/15 01:43:44;;;;;;;2.30;2.10;;;21.10;99.90;;;;;;4955396;29;20482;-64
2021/07/15 01:46:12;;;;;;;2.60;2.30;;;20.90;99.90;;;;;;4955265;28;20739;-67
2021/07/15 01:48:39;;;;;;;2.13;1.93;;;20.80;99.90;;;;;;4959090;29;20507;-67
2021/07/15 01:51:06;;;;;;;1.90;1.80;;;20.60;99.90;;;;;;4959166;29;20466;-64
2021/07/15 01:53:32;;;;;;;2.13;1.63;;;20.70;99.90;;;;;;4959070;29;20442;-65
2021/07/15 01:55:58;;;;;;;2.10;1.90;;;20.60;99.90;;;;;;4958892;29;20574;-67
2021/07/15 01:58:28;;;;;;;4.63;1.97;;;20.60;99.90;;;;;;4958826;29;20427;-67
2021/07/15 02:00:55;;;;;;;2.23;1.93;;;20.70;99.90;;;;;;4959060;29;20432;-64
2021/07/15 02:03:22;;;;;;;1.80;1.70;;;20.80;99.90;;;;;;4958947;29;20450;-67
2021/07/15 02:05:48;;;;;;;1.60;1.50;;;20.80;99.90;;;;;;4959119;29;20602;-68
2021/07/15 02:08:17;;;;;;;2.73;1.93;;;20.70;99.90;;;;;;4958836;29;20924;-64
2021/07/15 02:10:44;;;;;;;4.70;2.37;;;20.60;99.90;;;;;;4958872;29;20474;-64
2021/07/15 02:13:11;;;;;;;2.00;1.80;;;20.60;99.90;;;;;;4958829;29;20449;-67
2021/07/15 02:15:38;;;;;;;2.57;2.37;;;20.50;99.90;;;;;;4958519;29;20470;-67
2021/07/15 02:18:08;;;;;;;2.27;2.07;;;20.50;99.90;;;;;;4958435;29;20428;-67
2021/07/15 02:20:34;;;;;;;2.67;2.27;;;20.40;99.90;;;;;;4958724;29;21022;-68
2021/07/15 02:23:00;;;;;;;4.00;2.13;;;20.30;99.90;;;;;;4958695;29;20423;-67
2021/07/15 02:25:26;;;;;;;2.30;1.60;;;20.30;99.90;;;;;;4958623;29;20188;-67
2021/07/15 02:27:54;;;;;;;2.80;2.10;;;20.30;99.90;;;;;;4961130;29;20432;-67
2021/07/15 02:30:21;;;;;;;2.17;1.97;;;20.20;99.90;;;;;;4962095;29;20187;-67
2021/07/15 02:32:56;;;;;;;2.00;1.90;;;20.10;99.90;;;;;;4961705;29;20432;-67
2021/07/15 02:35:24;;;;;;;6.67;2.10;;;20.20;99.90;;;;;;4961076;29;20764;-68
2021/07/15 02:37:57;;;;;;;3.83;2.73;;;20.20;99.90;;;;;;4960605;29;20428;-65
2021/07/15 02:40:22;;;;;;;2.60;1.80;;;20.40;99.90;;;;;;4957992;29;20515;-64
2021/07/15 02:42:48;;;;;;;1.80;1.70;;;20.40;99.90;;;;;;4958137;29;21000;-64
2021/07/15 02:45:20;;;;;;;2.60;2.40;;;20.40;99.90;;;;;;4958840;29;20300;-64
2021/07/15 02:47:47;;;;;;;4.43;2.60;;;20.60;99.90;;;;;;4958171;29;20539;-64
2021/07/15 02:50:17;;;;;;;4.60;2.10;;;20.80;99.90;;;;;;4957840;29;20440;-64
2021/07/15 02:52:43;;;;;;;3.23;2.20;;;20.80;99.90;;;;;;4958038;29;20440;-64
2021/07/15 02:55:11;;;;;;;2.17;1.97;;;20.60;99.90;;;;;;4957919;29;20432;-64
2021/07/15 02:57:41;;;;;;;3.40;1.97;;;20.60;99.90;;;;;;4957616;28;20523;-64
2021/07/15 03:00:09;;;;;;;2.30;1.73;;;20.70;99.90;;;;;;4957181;29;20424;-64
2021/07/15 03:02:44;;;;;;;3.30;2.20;;;20.90;99.90;;;;;;4958079;29;20740;-67
2021/07/15 03:05:14;;;;;;;3.57;1.80;;;21.00;99.90;;;;;;4940734;29;20491;-64
2021/07/15 03:07:46;;;;;;;2.40;1.73;;;21.10;99.90;;;;;;4957707;29;20952;-64
2021/07/15 03:10:15;;;;;;;3.47;3.17;;;21.10;99.90;;;;;;4957698;29;20431;-64
2021/07/15 03:12:42;;;;;;;3.90;1.90;;;21.00;99.90;;;;;;4957610;29;20435;-64
2021/07/15 03:15:10;;;;;;;2.23;2.03;;;20.90;99.90;;;;;;4957488;29;20455;-64
2021/07/15 03:17:38;;;;;;;3.33;1.70;;;21.00;99.90;;;;;;4957330;29;20527;-64
2021/07/15 03:20:11;;;;;;;3.93;2.10;;;21.20;99.90;;;;;;4940356;29;20515;-64
2021/07/15 03:22:40;;;;;;;2.13;1.83;;;21.30;99.90;;;;;;4957598;29;20455;-65
2021/07/15 03:25:11;;;;;;;2.57;2.17;;;21.20;99.90;;;;;;4940546;29;20432;-64
2021/07/15 03:27:41;;;;;;;3.60;2.07;;;21.40;99.90;;;;;;4957414;29;20896;-65
2021/07/15 03:30:08;;;;;;;2.57;1.90;;;21.50;99.90;;;;;;4957119;29;20439;-64
2021/07/15 03:32:35;;;;;;;2.00;1.90;;;21.50;99.90;;;;;;4957110;29;20436;-64
2021/07/15 03:35:02;;;;;;;4.53;1.63;;;21.50;99.90;;;;;;4940131;29;20487;-64
2021/07/15 03:37:29;;;;;;;2.10;1.90;;;21.50;99.90;;;;;;4957023;29;20476;-65
2021/07/15 03:39:55;;;;;;;2.03;1.87;;;21.50;99.90;;;;;;4957018;29;20428;-65
2021/07/15 03:42:22;;;;;;;2.70;1.60;;;21.50;99.90;;;;;;4957107;29;20420;-64
2021/07/15 03:44:49;;;;;;;2.60;1.70;;;21.30;99.90;;;;;;4957003;29;20481;-64
2021/07/15 03:47:16;;;;;;;2.37;1.80;;;21.50;99.90;;;;;;4956911;29;20956;-65
2021/07/15 03:49:43;;;;;;;2.57;1.60;;;21.60;99.90;;;;;;4956779;29;20487;-65
2021/07/15 03:52:16;;;;;;;2.37;1.90;;;21.60;99.90;;;;;;4957084;29;20447;-65
2021/07/15 03:54:44;;;;;;;3.40;1.70;;;21.50;92.40;;;;;;4956991;29;20427;-64
2021/07/15 03:57:17;;;;;;;3.07;1.57;;;21.20;99.90;;;;;;4956636;29;20467;-64
2021/07/15 03:59:45;;;;;;;2.37;1.70;;;21.30;99.90;;;;;;4956596;29;20441;-64
2021/07/15 04:02:14;;;;;;;1.80;1.47;;;21.30;99.90;;;;;;4955732;29;20424;-65
2021/07/15 04:04:44;;;;;;;2.50;1.67;;;21.40;99.90;;;;;;4956623;29;20440;-64
2021/07/15 04:07:10;;;;;;;2.40;1.63;;;21.60;99.90;;;;;;4956558;29;20479;-65
2021/07/15 04:09:37;;;;;;;2.30;1.57;;;21.60;99.90;;;;;;4956207;28;20467;-64
2021/07/15 04:12:05;;;;;;;3.53;1.73;;;21.60;99.90;;;;;;4956455;29;20482;-65
2021/07/15 04:15:00;;;;;;;1.87;1.40;;;21.70;99.90;;;;;;4956537;29;20432;-64
2021/07/15 04:17:29;;;;;;;2.03;1.70;;;21.90;45.20;;;;;;4913881;29;20490;-65
2021/07/15 04:19:59;;;;;;;2.00;1.80;;;22.20;1.00;;;;;;4956334;29;20454;-65
2021/07/15 04:22:29;;;;;;;4.03;1.90;;;22.20;1.00;;;;;;4956446;29;20432;-65
2021/07/15 04:24:57;;;;;;;2.07;1.87;;;22.20;1.00;;;;;;4956335;29;20759;-66
2021/07/15 04:27:27;;;;;;;2.70;1.63;;;22.00;1.00;;;;;;4956056;29;20523;-65
2021/07/15 04:30:00;;;;;;;2.20;1.80;;;21.90;1.00;;;;;;4955971;29;20440;-65
2021/07/15 04:32:29;;;;;;;2.10;1.60;;;21.90;23.90;;;;;;4939304;29;20587;-65
2021/07/15 04:34:56;;;;;;;4.23;2.00;;;22.20;1.00;;;;;;4956087;29;20916;-65
2021/07/15 04:37:22;;;;;;;1.80;1.70;;;22.30;1.00;;;;;;4955884;29;20486;-65
2021/07/15 04:39:48;;;;;;;2.77;1.77;;;22.50;1.00;;;;;;4955844;29;20825;-67
2021/07/15 04:42:17;;;;;;;2.20;1.70;;;22.50;1.00;;;;;;4956000;29;20450;-69
2021/07/15 04:44:45;;;;;;;2.10;1.43;;;22.40;1.00;;;;;;4956073;29;20530;-68
2021/07/15 04:47:13;;;;;;;1.57;1.40;;;22.50;1.00;;;;;;4956364;29;20458;-68
2021/07/15 04:49:39;;;;;;;2.47;1.40;;;23.00;1.00;;;;;;4956616;29;20450;-68
2021/07/15 04:52:07;;;;;;;2.57;1.77;;;24.00;99.90;;;;;;4955840;29;20846;-65
2021/07/15 04:54:36;;;;;;;3.43;1.57;;;25.20;1.00;;;;;;4955828;29;20447;-64
2021/07/15 04:57:01;;;;;;;1.40;1.30;;;26.50;19.40;;;;;;4955545;29;20510;-64
2021/07/15 04:59:28;;;;;;;1.77;1.30;;;27.80;96.60;;;;;;4955660;29;20462;-64
2021/07/15 05:01:54;;;;;;;1.97;1.03;;;29.10;99.90;;;;;;4955638;29;20436;-64
2021/07/15 05:04:21;;;;;;;2.83;1.43;;;30.00;52.70;;;;;;4955716;29;20820;-64
2021/07/15 05:06:47;;;;;;;2.10;1.60;;;30.80;1.00;;;;;;4955609;29;20463;-64
2021/07/15 05:09:12;;;;;;;4.83;1.50;;;32.00;1.00;;;;;;4955488;29;20467;-64
2021/07/15 05:11:38;;;;;;;2.00;1.17;;;32.40;1.00;;;;;;4955872;29;20514;-64
2021/07/15 05:14:05;;;;;;;1.93;1.10;;;32.70;1.00;;;;;;4955603;29;20629;-64
2021/07/15 05:16:31;;;;;;;3.53;1.70;;;33.00;1.00;;;;;;4955609;29;20230;-64
2021/07/15 05:18:57;;;;;;;1.63;1.17;;;32.60;1.00;;;;;;4955393;29;20435;-64
2021/07/15 05:21:23;;;;;;;1.47;1.27;;;32.50;1.00;;;;;;4954971;29;20967;-64
2021/07/15 05:23:48;;;;;;;2.03;1.00;;;33.30;1.00;;;;;;4955492;29;20206;-64
2021/07/15 05:26:15;;;;;;;1.70;1.60;;;32.40;1.00;;;;;;4955438;29;20742;-64
2021/07/15 05:28:41;;;;;;;1.70;1.17;;;32.50;1.00;;;;;;4955247;29;20184;-64
2021/07/15 05:31:07;;;;;;;2.00;1.27;;;33.30;1.00;;;;;;4955425;29;20432;-64
2021/07/15 05:33:32;;;;;;;3.87;1.50;;;33.20;1.00;;;;;;4955126;29;20555;-64
2021/07/15 05:35:58;;;;;;;1.70;1.20;;;31.50;1.00;;;;;;4955245;29;20226;-69
2021/07/15 05:38:24;;;;;;;7.10;1.30;;;30.70;1.00;;;;;;4954847;29;20207;-70
2021/07/15 05:40:50;;;;;;;5.03;1.60;;;30.00;1.00;;;;;;4955345;29;20380;-69
2021/07/15 05:43:15;;;;;;;1.30;1.00;;;29.50;42.00;;;;;;4955661;29;20641;-69
2021/07/15 05:45:41;;;;;;;2.17;1.40;;;29.10;99.90;;;;;;4955406;29;20728;-69
2021/07/15 05:48:06;;;;;;;2.60;1.70;;;28.90;99.90;;;;;;4938222;29;20271;-69
2021/07/15 05:50:32;;;;;;;5.37;1.70;;;28.50;99.90;;;;;;4955564;29;20184;-69
2021/07/15 05:52:58;;;;;;;1.57;1.30;;;28.00;1.00;;;;;;4954854;29;20645;-69
2021/07/15 05:55:23;;;;;;;1.90;1.70;;;27.50;99.90;;;;;;4955319;29;20440;-69
2021/07/15 05:57:49;;;;;;;5.23;1.90;;;26.90;1.00;;;;;;4954968;29;20194;-69
2021/07/15 06:00:15;;;;;;;2.00;1.80;;;26.60;1.00;;;;;;4954998;29;20204;-69
2021/07/15 06:02:41;;;;;;;1.40;1.30;;;26.60;99.90;;;;;;4955323;29;20200;-69
2021/07/15 06:05:07;;;;;;;2.10;1.80;;;26.70;99.90;;;;;;4955223;29;20452;-69
2021/07/15 06:07:34;;;;;;;2.00;1.70;;;27.90;1.00;;;;;;4955021;29;20406;-69
2021/07/15 06:10:00;;;;;;;2.13;1.70;;;27.30;1.00;;;;;;4955065;29;20428;-69
2021/07/15 06:12:25;;;;;;;2.37;1.77;;;26.50;1.00;;;;;;4956073;29;20438;-69
2021/07/15 06:14:51;;;;;;;2.87;2.00;;;26.40;99.90;;;;;;4955074;29;20199;-68
2021/07/15 06:17:16;;;;;;;4.30;1.50;;;26.20;99.90;;;;;;4954984;29;20212;-68
2021/07/15 06:19:42;;;;;;;2.60;1.40;;;26.30;1.00;;;;;;4955058;29;20177;-69
2021/07/15 06:22:07;;;;;;;4.00;1.50;;;26.20;1.00;;;;;;4955069;29;20189;-69
2021/07/15 06:24:33;;;;;;;2.80;1.63;;;26.90;1.00;;;;;;4954978;29;20164;-69
2021/07/15 06:26:59;;;;;;;3.43;1.77;;;26.80;1.00;;;;;;4955045;29;20180;-69
2021/07/15 06:29:26;;;;;;;4.33;2.00;;;27.00;1.00;;;;;;4955033;29;20184;-69
2021/07/15 06:31:51;;;;;;;2.70;1.70;;;27.70;1.00;;;;;;4955287;29;20617;-69
2021/07/15 06:34:17;;;;;;;4.90;1.73;;;28.30;1.00;;;;;;4956404;28;20451;-69
2021/07/15 06:36:45;;;;;;;2.83;2.30;;;29.30;99.90;;;;;;4958232;29;20212;-69
2021/07/15 06:39:12;;;;;;;5.87;2.00;;;29.20;99.90;;;;;;4941756;29;20200;-69
2021/07/15 06:41:37;;;;;;;2.83;1.80;;;28.60;99.90;;;;;;4958588;29;20466;-69
2021/07/15 06:44:03;;;;;;;3.27;1.97;;;27.70;1.00;;;;;;4961430;28;20475;-68
2021/07/15 06:46:30;;;;;;;2.97;2.10;;;27.00;1.00;;;;;;4958493;28;20184;-69
2021/07/15 06:48:55;;;;;;;1.93;1.73;;;27.70;99.90;;;;;;4958000;29;20526;-69
2021/07/15 06:51:21;;;;;;;3.07;1.57;;;29.90;99.90;;;;;;4941244;29;20475;-69
2021/07/15 06:53:48;;;;;;;3.37;2.50;;;30.70;1.00;;;;;;4957757;29;20239;-69
2021/07/15 06:56:14;;;;;;;6.30;2.20;;;30.30;1.00;;;;;;4957667;29;20295;-69
2021/07/15 06:58:39;;;;;;;8.40;2.20;;;29.40;99.90;;;;;;4957612;29;20530;-69
2021/07/15 07:01:08;;;;;;;3.23;2.10;;;28.90;99.90;;;;;;4958108;28;20219;-69
2021/07/15 07:03:34;;;;;;;3.07;1.80;;;28.10;1.00;;;;;;4957710;29;20575;-69
2021/07/15 07:06:00;;;;;;;2.53;2.07;;;28.00;1.00;;;;;;4957713;29;20459;-69
2021/07/15 07:08:25;;;;;;;3.00;2.00;;;27.40;1.00;;;;;;4957448;29;20440;-69
2021/07/15 07:10:51;;;;;;;1.57;1.47;;;27.10;1.00;;;;;;4957653;29;20180;-69
2021/07/15 07:13:16;;;;;;;2.33;2.10;;;26.70;1.00;;;;;;4957869;29;20622;-69
2021/07/15 07:15:42;;;;;;;4.17;2.53;;;26.50;99.90;;;;;;4957574;29;20526;-68
2021/07/15 07:18:08;;;;;;;2.57;2.13;;;26.30;99.90;;;;;;4957403;28;20339;-69
2021/07/15 07:20:33;;;;;;;2.80;2.50;;;26.10;1.00;;;;;;4958049;29;20274;-69
2021/07/15 07:22:59;;;;;;;6.37;2.40;;;25.70;1.00;;;;;;4957830;29;20181;-69
2021/07/15 07:25:25;;;;;;;4.63;2.70;;;25.80;99.90;;;;;;4957673;29;20184;-69
2021/07/15 07:27:50;;;;;;;2.53;2.33;;;26.20;99.90;;;;;;4940793;29;20192;-69
2021/07/15 07:30:18;;;;;;;4.70;2.97;;;26.60;1.00;;;;;;4957366;29;20273;-69
2021/07/15 07:32:45;;;;;;;3.33;2.80;;;26.90;1.00;;;;;;4956746;29;20455;-68
2021/07/15 07:35:12;;;;;;;3.70;2.40;;;27.10;1.00;;;;;;4940257;29;20451;-68
2021/07/15 07:37:38;;;;;;;3.30;2.50;;;27.10;99.90;;;;;;4940143;29;20530;-68
2021/07/15 07:40:07;;;;;;;2.73;2.53;;;27.10;99.90;;;;;;4957041;29;20439;-69
2021/07/15 07:42:33;;;;;;;3.30;2.97;;;26.80;1.00;;;;;;4957216;29;20621;-69
2021/07/15 07:44:58;;;;;;;4.50;2.73;;;26.50;67.60;;;;;;4939412;29;20454;-69
2021/07/15 07:47:24;;;;;;;3.50;2.97;;;26.80;91.10;;;;;;4956671;29;20243;-70
2021/07/15 07:49:49;;;;;;;3.47;3.13;;;26.80;1.00;;;;;;4957175;29;20192;-66
2021/07/15 07:52:15;;;;;;;6.43;2.73;;;26.90;1.00;;;;;;4939883;29;20230;-66
2021/07/15 07:54:41;;;;;;;3.50;3.20;;;26.20;99.90;;;;;;4956804;29;20184;-64
2021/07/15 07:57:09;;;;;;;8.43;3.40;;;26.20;1.00;;;;;;4956638;29;20650;-66
2021/07/15 07:59:35;;;;;;;2.70;2.50;;;26.30;99.90;;;;;;4956707;29;20176;-65
2021/07/15 08:02:00;;;;;;;2.90;2.63;;;26.60;1.00;;;;;;4956748;29;20456;-65
2021/07/15 08:04:26;;;;;;;4.90;3.40;;;27.00;99.90;;;;;;4956591;29;20610;-64
2021/07/15 08:06:52;;;;;;;3.53;3.10;;;27.20;99.90;;;;;;4939560;29;20196;-65
2021/07/15 08:09:23;;;;;;;2.90;2.70;;;26.90;99.90;;;;;;4956488;29;20434;-66
2021/07/15 08:11:51;;;;;;;6.13;5.07;;;27.30;99.90;;;;;;4956668;29;20255;-65
2021/07/15 08:14:16;;;;;;;2.97;2.77;;;27.30;1.00;;;;;;4956395;29;20432;-65
2021/07/15 08:16:42;;;;;;;3.40;3.10;;;26.70;99.90;;;;;;4956081;29;20593;-65
2021/07/15 08:19:09;;;;;;;3.37;2.60;;;26.30;1.00;;;;;;4956228;29;20248;-65
2021/07/15 08:21:35;;;;;;;6.00;3.57;;;26.80;99.90;;;;;;4939359;29;20188;-65
2021/07/15 08:24:00;;;;;;;4.90;3.70;;;26.90;99.90;;;;;;4955240;29;20941;-66
2021/07/15 08:26:26;;;;;;;3.37;2.93;;;27.20;24.00;;;;;;4936636;29;20534;-65
2021/07/15 08:28:52;;;;;;;4.80;3.53;;;27.30;99.90;;;;;;4937274;29;20885;-65
2021/07/15 08:31:39;;;;;;;3.90;3.50;;;27.50;99.90;;;;;;4936960;29;20518;-64
2021/07/15 08:34:11;;;;;;;3.87;3.40;;;27.30;70.80;;;;;;4937027;29;20220;-65
2021/07/15 08:36:36;;;;;;;3.20;2.63;;;27.00;30.40;;;;;;4936958;29;20935;-65
2021/07/15 08:39:04;;;;;;;3.33;3.00;;;26.80;99.90;;;;;;4937013;29;20429;-64
2021/07/15 08:41:30;;;;;;;4.53;2.83;;;26.80;99.90;;;;;;4936701;29;20191;-65
2021/07/15 08:43:55;;;;;;;4.90;2.70;;;26.80;99.90;;;;;;4937337;29;20507;-66
2021/07/15 08:46:21;;;;;;;3.10;2.80;;;26.90;99.90;;;;;;4937369;29;20318;-65
2021/07/15 08:48:48;;;;;;;2.87;2.60;;;26.90;1.00;;;;;;4941822;28;20259;-65
2021/07/15 08:51:15;;;;;;;3.27;3.00;;;27.10;1.00;;;;;;4939157;29;20754;-69
2021/07/15 08:53:43;;;;;;;4.90;3.60;;;27.30;1.00;;;;;;4956397;29;20442;-69
2021/07/15 08:58:53;;;;;;;2.93;2.70;;;27.20;99.90;;;;;;4956398;29;20904;-69
2021/07/15 09:01:18;;;;;;;3.77;2.77;;;26.90;99.90;;;;;;4956641;29;20427;-67
2021/07/15 09:03:44;;;;;;;3.17;2.87;;;26.80;1.00;;;;;;4956923;29;20438;-67
2021/07/15 09:06:10;;;;;;;2.93;2.73;;;26.50;99.90;;;;;;4956564;29;20268;-70
2021/07/15 09:08:35;;;;;;;4.23;3.43;;;26.60;1.00;;;;;;4956130;29;20531;-67
2021/07/15 09:11:02;;;;;;;4.80;3.30;;;27.00;1.00;;;;;;4956158;29;20520;-65
2021/07/15 09:13:28;;;;;;;5.10;3.27;;;27.00;6.20;;;;;;4956162;29;20213;-68
2021/07/15 09:15:54;;;;;;;3.07;2.77;;;26.70;99.90;;;;;;4956279;29;20874;-70
2021/07/15 09:18:20;;;;;;;2.80;2.50;;;26.60;90.10;;;;;;4955687;29;20869;-69
2021/07/15 09:20:46;;;;;;;3.90;3.60;;;26.60;99.90;;;;;;4956353;29;20192;-69
2021/07/15 09:23:14;;;;;;;5.33;2.80;;;26.70;89.70;;;;;;4956001;29;20184;-69
2021/07/15 09:25:40;;;;;;;3.73;2.83;;;27.10;1.00;;;;;;4955849;29;20428;-69
2021/07/15 09:28:09;;;;;;;3.33;3.03;;;27.50;1.00;;;;;;4938812;29;20432;-68
2021/07/15 09:30:35;;;;;;;3.00;2.70;;;27.00;1.00;;;;;;4938880;29;20176;-68
2021/07/15 09:33:10;;;;;;;3.23;2.93;;;27.00;1.00;;;;;;4955782;29;20436;-69
2021/07/15 09:35:41;;;;;;;3.87;2.47;;;26.60;39.30;;;;;;4955788;29;20736;-68
2021/07/15 09:38:09;;;;;;;3.40;2.80;;;27.50;1.00;;;;;;4955507;29;20476;-68
2021/07/15 09:40:39;;;;;;;4.77;2.97;;;28.00;99.90;;;;;;4955768;29;20428;-68
2021/07/15 09:43:12;;;;;;;4.20;3.33;;;28.40;99.90;;;;;;4955648;29;20427;-65
2021/07/15 09:45:37;;;;;;;3.10;2.40;;;28.70;99.90;;;;;;4955737;29;20534;-65
2021/07/15 09:48:13;;;;;;;2.93;2.70;;;28.90;82.70;;;;;;4955488;29;20478;-65
2021/07/15 09:50:39;;;;;;;2.70;2.40;;;28.90;59.60;;;;;;4955444;28;20656;-68
2021/07/15 09:53:34;;;;;;;2.90;2.50;;;28.70;48.40;;;;;;4955939;29;20427;-68
2021/07/15 09:56:12;;;;;;;4.17;2.63;;;29.50;1.00;;;;;;4935478;29;20487;-68
2021/07/15 09:58:39;;;;;;;3.40;2.50;;;29.30;1.00;;;;;;4938421;29;20432;-68
2021/07/15 10:01:16;;;;;;;3.00;2.70;;;29.20;1.00;;;;;;4938018;29;20454;-65
2021/07/15 10:03:44;;;;;;;3.00;2.70;;;29.20;1.00;;;;;;4938564;29;20443;-68
2021/07/15 10:06:12;;;;;;;3.33;3.03;;;28.60;1.00;;;;;;4955553;29;20903;-65
2021/07/15 10:08:39;;;;;;;2.40;2.20;;;28.30;25.80;;;;;;4957508;28;20431;-64
2021/07/15 10:11:29;;;;;;;2.67;2.37;;;27.50;1.00;;;;;;4958949;29;20443;-64
2021/07/15 10:14:00;;;;;;;3.27;3.00;;;26.90;1.00;;;;;;4959229;29;20514;-64
2021/07/15 10:16:31;;;;;;;5.87;3.63;;;26.60;1.00;;;;;;4958989;29;20938;-64
2021/07/15 10:18:57;;;;;;;3.30;3.00;;;26.60;1.00;;;;;;4958955;29;20475;-64
2021/07/15 10:21:25;;;;;;;5.60;3.00;;;26.60;1.00;;;;;;4959055;29;20494;-65
2021/07/15 10:23:52;;;;;;;3.50;3.20;;;26.40;1.00;;;;;;4958941;29;20510;-65
2021/07/15 10:26:17;;;;;;;3.77;2.93;;;26.90;1.00;;;;;;4958979;29;20436;-65
2021/07/15 10:28:48;;;;;;;5.03;3.50;;;27.10;99.90;;;;;;4958787;29;20442;-64
2021/07/15 10:31:16;;;;;;;3.40;3.10;;;27.10;99.90;;;;;;4958718;29;20184;-64
2021/07/15 10:33:43;;;;;;;3.57;3.27;;;27.40;99.90;;;;;;4946580;29;20448;-64
2021/07/15 10:36:10;;;;;;;3.70;3.40;;;27.60;89.00;;;;;;4939507;29;20805;-65
2021/07/15 10:38:44;;;;;;;4.03;3.73;;;27.70;99.90;;;;;;4939379;29;20786;-65
2021/07/15 10:41:11;;;;;;;3.50;3.20;;;27.80;99.90;;;;;;4939573;29;20428;-65
2021/07/15 10:43:37;;;;;;;4.07;3.10;;;28.30;99.90;;;;;;4939728;29;20429;-64
2021/07/15 10:46:05;;;;;;;4.50;4.10;;;28.70;39.10;;;;;;4939633;29;20465;-64
2021/07/15 10:48:33;;;;;;;4.43;4.03;;;28.40;39.00;;;;;;4939389;29;20468;-64
2021/07/15 10:51:02;;;;;;;5.53;3.77;;;27.80;99.90;;;;;;4946157;28;20485;-64
2021/07/15 10:53:30;;;;;;;3.90;3.57;;;27.20;99.90;;;;;;4964260;28;20460;-69
2021/07/15 10:55:57;;;;;;;5.10;4.67;;;26.60;1.00;;;;;;4968212;28;20434;-68
2021/07/15 10:58:56;;;;;;;4.07;3.67;;;26.80;1.00;;;;;;4951316;28;20428;-67
2021/07/15 11:01:40;;;;;;;4.13;3.80;;;26.80;99.90;;;;;;4908209;29;20472;-69
2021/07/15 11:04:08;;;;;;;4.20;3.90;;;26.80;99.90;;;;;;4938628;29;20488;-69
2021/07/15 11:06:44;;;;;;;5.33;4.93;;;27.00;99.90;;;;;;4938224;29;20448;-69
2021/07/15 11:09:30;;;;;;;6.00;5.40;;;27.50;99.90;;;;;;4921455;29;20444;-69
2021/07/15 11:11:57;;;;;;;5.27;4.80;;;27.60;99.90;;;;;;4938354;29;20460;-69
2021/07/15 11:14:41;;;;;;;8.20;5.43;;;27.40;99.90;;;;;;4938431;29;20461;-69
2021/07/15 11:17:29;;;;;;;5.10;4.60;;;27.70;99.90;;;;;;4938232;29;20790;-69
2021/07/15 11:19:58;;;;;;;5.57;3.97;;;27.60;99.90;;;;;;4937583;29;20912;-69
2021/07/15 11:22:43;;;;;;;5.17;4.23;;;28.00;99.90;;;;;;4921411;29;20471;-70
2021/07/15 11:25:28;;;;;;;4.33;3.93;;;28.50;99.90;;;;;;4938289;29;20440;-69
2021/07/15 11:28:18;;;;;;;5.80;4.00;;;28.70;43.10;;;;;;4921697;29;20433;-69
2021/07/15 11:30:47;;;;;;;5.13;4.73;;;28.90;1.00;;;;;;4921732;29;20436;-69
2021/07/15 11:33:21;;;;;;;5.70;5.10;;;28.90;1.00;;;;;;4938077;29;20948;-68
2021/07/15 11:36:23;;;;;;;5.90;5.33;;;28.50;77.40;;;;;;4938022;29;20431;-68
2021/07/15 11:39:03;;;;;;;5.60;5.00;;;28.00;99.90;;;;;;4937975;29;20539;-68
2021/07/15 11:41:47;;;;;;;5.90;5.40;;;28.00;99.90;;;;;;4921773;29;20853;-69
2021/07/15 11:44:13;;;;;;;5.70;4.93;;;27.90;99.90;;;;;;4937991;29;20420;-69
2021/07/15 11:46:40;;;;;;;5.83;4.93;;;28.30;61.10;;;;;;4937788;29;20919;-69
2021/07/15 11:49:18;;;;;;;5.80;5.30;;;28.90;42.90;;;;;;4945921;28;20888;-68
2021/07/15 11:52:00;;;;;;;6.03;5.30;;;29.60;1.00;;;;;;4957173;28;20454;-68
2021/07/15 11:54:34;;;;;;;6.03;5.50;;;30.40;1.00;;;;;;4957663;29;20451;-69
2021/07/15 11:57:01;;;;;;;5.77;5.27;;;30.60;1.00;;;;;;4940186;29;20474;-69
2021/07/15 11:59:49;;;;;;;5.63;5.03;;;30.50;1.00;;;;;;4956590;28;20439;-69
2021/07/15 12:02:24;;;;;;;6.23;5.63;;;30.70;1.00;;;;;;4957083;29;20423;-69
2021/07/15 12:05:28;;;;;;;6.07;4.97;;;30.70;1.00;;;;;;4956659;29;20446;-68
2021/07/15 12:08:15;;;;;;;5.23;4.83;;;30.60;1.00;;;;;;4956800;29;20428;-68
2021/07/15 12:10:46;;;;;;;5.33;4.80;;;30.00;1.00;;;;;;4956869;29;20423;-68
2021/07/15 12:13:14;;;;;;;4.93;4.43;;;28.80;85.80;;;;;;4966100;28;20763;-68
2021/07/15 12:15:43;;;;;;;11.60;5.73;;;28.70;99.90;;;;;;4975663;28;20439;-68
2021/07/15 12:18:20;;;;;;;6.13;5.30;;;28.20;99.90;;;;;;4975364;28;20955;-68
2021/07/15 12:20:52;;;;;;;6.27;5.10;;;27.80;99.90;;;;;;4975829;28;20481;-69
2021/07/15 12:23:23;;;;;;;8.20;5.60;;;28.20;99.90;;;;;;4975306;28;20435;-69
2021/07/15 12:25:53;;;;;;;6.40;5.70;;;28.30;99.90;;;;;;4975556;28;20431;-69
2021/07/15 12:28:25;;;;;;;6.27;5.67;;;28.60;89.80;;;;;;4975471;28;20458;-68
2021/07/15 12:31:09;;;;;;;6.37;5.83;;;28.90;6.70;;;;;;4975545;28;20441;-68
2021/07/15 12:33:49;;;;;;;6.13;5.33;;;29.30;1.00;;;;;;4953126;28;20440;-68
2021/07/15 12:36:20;;;;;;;6.20;5.70;;;28.30;99.90;;;;;;4936781;29;20875;-68
2021/07/15 12:38:51;;;;;;;11.03;5.87;;;27.30;99.90;;;;;;4936876;29;20429;-69
2021/07/15 12:41:26;;;;;;;9.17;6.40;;;27.30;1.00;;;;;;4936878;29;20457;-69
2021/07/15 12:44:09;;;;;;;6.83;6.03;;;28.10;99.90;;;;;;4936743;29;20424;-69
2021/07/15 12:46:36;;;;;;;6.37;5.77;;;28.80;48.10;;;;;;4936736;29;20909;-69
2021/07/15 12:49:18;;;;;;;7.30;6.20;;;28.60;37.50;;;;;;4919424;29;20448;-68
2021/07/15 12:51:47;;;;;;;6.50;6.00;;;28.70;99.90;;;;;;4932422;29;20435;-68
2021/07/15 12:54:20;;;;;;;6.70;5.93;;;28.40;83.30;;;;;;4955799;29;20779;-68
2021/07/15 12:56:46;;;;;;;6.23;5.63;;;28.10;99.90;;;;;;4955601;29;20463;-68
2021/07/15 12:59:13;;;;;;;7.63;6.47;;;27.80;99.90;;;;;;4955778;29;20424;-69
2021/07/15 13:01:42;;;;;;;6.57;5.97;;;28.10;99.90;;;;;;4938639;29;20436;-70
2021/07/15 13:04:16;;;;;;;8.50;6.20;;;28.40;55.80;;;;;;4955847;29;20431;-68
2021/07/15 13:06:47;;;;;;;7.13;6.30;;;28.50;99.90;;;;;;4955483;29;20435;-68